Time;durP1;ratioP1;P1;durP2;ratioP2;P2;SDS_P1;SDS_P2;PMS_P1;PMS_P2;Temp;Humidity;BMP_temperature;BMP_pressure;BME280_temperature;BME280_humidity;BME280_pressure;Samples;Min_cycle;Max_cycle;Signal;HPM_P1;HPM_P2
2021/04/03 00:00:58;;;;;;;;;;;;;;;1.69;69.92;98949.20;1698894;83;21638;-65
2021/04/03 00:03:28;;;;;;;10.25;7.80;;;;;;;1.69;69.74;98945.32;1672972;83;20621;-59
2021/04/03 00:05:57;;;;;;;12.73;7.90;;;;;;;1.67;69.83;98953.56;1692463;83;21608;-59
2021/04/03 00:08:27;;;;;;;13.60;9.08;;;;;;;1.66;69.71;98958.36;1688948;83;21484;-60
2021/04/03 00:11:01;;;;;;;15.43;8.68;;;;;;;1.61;69.65;98953.23;1698297;83;22113;-59
2021/04/03 00:13:39;;;;;;;12.82;8.48;;;;;;;1.60;69.56;98952.84;1686018;83;21656;-60
2021/04/03 00:16:10;;;;;;;11.88;8.05;;;;;;;1.58;69.58;98956.31;1695118;82;21726;-60
2021/04/03 00:18:38;;;;;;;14.85;7.92;;;;;;;1.55;69.55;98959.83;1695243;83;21650;-60
2021/04/03 00:21:06;;;;;;;11.28;7.60;;;;;;;1.53;69.53;98956.41;1697215;83;21686;-60
2021/04/03 00:23:35;;;;;;;12.07;7.50;;;;;;;1.51;69.56;98953.84;1695779;83;22239;-60
2021/04/03 00:26:03;;;;;;;10.43;7.45;;;;;;;1.52;69.51;98953.39;1692792;83;21655;-60
2021/04/03 00:28:34;;;;;;;11.90;8.58;;;;;;;1.43;69.45;98941.89;1697976;83;21651;-60
2021/04/03 00:31:02;;;;;;;13.72;7.97;;;;;;;1.48;69.47;98953.88;1687978;83;21634;-60
2021/04/03 00:33:31;;;;;;;12.85;7.85;;;;;;;1.45;69.49;98950.06;1688325;83;21590;-60
2021/04/03 00:35:59;;;;;;;13.15;7.53;;;;;;;1.41;69.60;98943.20;1680259;83;21927;-60
2021/04/03 00:38:28;;;;;;;10.82;7.10;;;;;;;1.36;69.72;98947.17;1691817;83;21714;-61
2021/04/03 00:40:56;;;;;;;10.08;6.25;;;;;;;1.32;69.63;98945.97;1695143;83;21666;-59
2021/04/03 00:43:24;;;;;;;8.83;6.12;;;;;;;1.32;69.67;98948.56;1654749;84;21680;-59
2021/04/03 00:45:53;;;;;;;7.28;5.45;;;;;;;1.31;69.93;98942.95;1692015;83;21708;-60
2021/04/03 00:48:21;;;;;;;8.63;6.12;;;;;;;1.27;69.91;98947.77;1696674;83;21995;-60
2021/04/03 00:50:52;;;;;;;9.00;5.33;;;;;;;1.22;70.09;98936.63;1690967;83;21651;-60
2021/04/03 00:53:25;;;;;;;7.75;5.47;;;;;;;1.24;70.17;98950.40;1694993;82;21595;-60
2021/04/03 00:55:55;;;;;;;8.78;5.75;;;;;;;1.23;70.13;98950.00;1680891;83;21672;-60
2021/04/03 00:58:24;;;;;;;9.28;5.40;;;;;;;1.21;70.04;98956.50;1666543;84;21581;-59
2021/04/03 01:00:53;;;;;;;8.18;5.90;;;;;;;1.20;70.06;98952.19;1668079;84;21534;-61
2021/04/03 01:03:24;;;;;;;11.33;6.55;;;;;;;1.20;69.82;98963.84;1660085;84;21648;-60
2021/04/03 01:05:55;;;;;;;8.20;5.97;;;;;;;1.20;69.78;98958.66;1667303;84;21701;-62
2021/04/03 01:08:24;;;;;;;12.10;6.30;;;;;;;1.22;69.77;98949.13;1672688;84;21679;-60
2021/04/03 01:10:55;;;;;;;9.60;7.08;;;;;;;1.23;69.81;98957.77;1668239;84;21217;-60
2021/04/03 01:14:13;;;;;;;12.30;6.53;;;;;;;1.24;69.78;98961.61;1667114;84;22093;-61
2021/04/03 01:17:02;;;;;;;8.78;6.15;;;;;;;1.22;69.68;98956.89;1662892;84;21197;-62
2021/04/03 01:20:15;;;;;;;13.62;7.20;;;;;;;1.24;69.56;98962.05;1657363;84;21155;-60
2021/04/03 01:22:58;;;;;;;12.18;7.35;;;;;;;1.24;69.49;98965.49;1638303;86;22046;-64
2021/04/03 01:26:12;;;;;;;9.45;5.95;;;;;;;1.23;69.46;98960.36;1660146;84;21217;-61
2021/04/03 01:29:12;;;;;;;12.07;6.67;;;;;;;1.27;69.43;98960.73;1623364;86;21927;-62
2021/04/03 01:31:41;;;;;;;12.98;6.72;;;;;;;1.30;69.41;98958.06;1657830;85;21628;-61
2021/04/03 01:34:24;;;;;;;9.80;6.70;;;;;;;1.31;69.40;98957.20;1657803;85;21624;-61
2021/04/03 01:37:04;;;;;;;11.53;5.92;;;;;;;1.34;69.40;98959.75;1648514;85;21226;-61
2021/04/03 01:39:36;;;;;;;7.72;5.75;;;;;;;1.35;69.46;98963.58;1683392;83;21686;-67
2021/04/03 01:42:07;;;;;;;8.98;6.33;;;;;;;1.36;69.45;98957.54;1686840;83;21854;-61
2021/04/03 01:44:52;;;;;;;10.15;6.53;;;;;;;1.36;69.46;98950.22;1686370;83;21509;-59
2021/04/03 01:47:22;;;;;;;13.35;7.05;;;;;;;1.40;69.47;98959.64;1691412;83;21686;-61
2021/04/03 01:49:52;;;;;;;9.25;6.40;;;;;;;1.38;69.40;98956.22;1691292;83;21601;-62
2021/04/03 01:52:25;;;;;;;11.63;6.87;;;;;;;1.39;69.39;98963.09;1691730;83;21641;-60
2021/04/03 01:54:56;;;;;;;12.78;6.47;;;;;;;1.40;69.42;98956.20;1672978;83;22036;-59
2021/04/03 01:57:24;;;;;;;8.95;6.42;;;;;;;1.42;69.38;98957.87;1696592;83;21618;-58
2021/04/03 02:00:09;;;;;;;5.95;4.97;;;;;;;1.46;69.38;98957.39;1827276;75;23881;-61
2021/04/03 02:02:48;;;;;;;7.40;5.75;;;;;;;1.40;69.35;98959.64;1808472;76;21649;-60
2021/04/03 02:05:20;;;;;;;11.73;5.90;;;;;;;1.36;69.33;98954.95;1807619;76;22075;-61
2021/04/03 02:07:50;;;;;;;8.03;5.67;;;;;;;1.33;69.18;98951.10;1798870;76;21416;-61
2021/04/03 02:10:26;;;;;;;8.15;5.58;;;;;;;1.32;69.06;98956.34;1804145;76;22352;-61
2021/04/03 02:12:57;;;;;;;10.35;5.80;;;;;;;1.32;68.87;98953.74;1804970;76;21197;-64
2021/04/03 02:15:29;;;;;;;7.22;5.08;;;;;;;1.29;68.79;98947.30;1766580;76;22019;-62
2021/04/03 02:17:59;;;;;;;7.35;5.10;;;;;;;1.26;68.82;98948.22;1804433;76;21621;-62
2021/04/03 02:20:29;;;;;;;6.70;4.58;;;;;;;1.19;68.93;98942.72;1797595;77;21118;-61
2021/04/03 02:22:58;;;;;;;8.30;5.72;;;;;;;1.13;68.97;98942.80;1819216;76;21531;-61
2021/04/03 02:25:27;;;;;;;7.40;4.58;;;;;;;1.09;69.02;98943.31;1753807;78;21621;-62
2021/04/03 02:27:56;;;;;;;6.92;4.92;;;;;;;1.05;68.95;98940.33;1805604;76;21213;-63
2021/04/03 02:30:27;;;;;;;6.83;5.40;;;;;;;1.00;68.95;98931.80;1807797;76;22057;-61
2021/04/03 02:32:57;;;;;;;7.08;5.55;;;;;;;1.03;68.95;98940.80;1795749;76;21579;-62
2021/04/03 02:35:28;;;;;;;6.72;4.85;;;;;;;1.00;69.19;98939.56;1804151;76;21675;-61
2021/04/03 02:38:01;;;;;;;8.23;5.35;;;;;;;1.00;69.24;98939.98;1796965;76;21483;-62
2021/04/03 02:40:31;;;;;;;7.87;5.20;;;;;;;0.95;69.17;98938.77;1815396;76;21664;-62
2021/04/03 02:43:29;;;;;;;6.75;4.90;;;;;;;0.91;69.16;98938.41;1783433;76;22134;-62
2021/04/03 02:46:20;;;;;;;;;;;;;;;0.91;69.28;98943.58;1799958;76;21507;-60
2021/04/03 02:48:51;;;;;;;6.65;4.40;;;;;;;0.87;69.15;98942.77;1799959;76;20506;-59
2021/04/03 02:51:34;;;;;;;5.35;4.50;;;;;;;0.82;69.30;98938.54;1807591;76;21643;-59
2021/04/03 02:54:02;;;;;;;6.00;4.28;;;;;;;0.81;69.40;98941.58;1803714;76;21067;-60
2021/04/03 02:56:32;;;;;;;5.80;4.30;;;;;;;0.78;69.46;98939.02;1814678;76;21951;-60
2021/04/03 02:59:02;;;;;;;6.08;4.28;;;;;;;0.78;69.40;98941.16;1798339;76;21467;-66
2021/04/03 03:01:33;;;;;;;4.95;4.05;;;;;;;0.80;69.53;98948.06;1802460;76;21441;-59
2021/04/03 03:04:06;;;;;;;8.98;4.78;;;;;;;0.77;69.61;98950.23;1810815;76;21577;-60
2021/04/03 03:06:34;;;;;;;5.47;3.87;;;;;;;0.77;69.36;98945.94;1777976;78;21137;-59
2021/04/03 03:09:05;;;;;;;7.08;4.28;;;;;;;0.81;69.19;98943.28;1805655;76;22087;-60
2021/04/03 03:11:34;;;;;;;7.05;3.98;;;;;;;0.84;69.09;98944.55;1802625;77;21566;-60
2021/04/03 03:14:03;;;;;;;5.78;4.12;;;;;;;0.86;68.97;98939.75;1772010;76;21581;-60
2021/04/03 03:16:33;;;;;;;6.50;4.12;;;;;;;0.91;68.82;98947.47;1807894;76;21637;-59
2021/04/03 03:19:02;;;;;;;5.80;3.80;;;;;;;0.95;68.72;98937.03;1806698;76;21595;-66
2021/04/03 03:21:31;;;;;;;9.65;3.75;;;;;;;0.94;68.61;98939.22;1820299;76;22012;-58
2021/04/03 03:24:00;;;;;;;6.20;3.85;;;;;;;0.92;68.60;98939.69;1819805;76;21590;-62
2021/04/03 03:26:32;;;;;;;4.67;4.03;;;;;;;0.93;68.53;98945.70;1822820;76;21497;-59
2021/04/03 03:29:09;;;;;;;5.20;4.08;;;;;;;0.90;68.65;98949.63;1813121;76;21612;-60
2021/04/03 03:31:40;;;;;;;5.75;4.00;;;;;;;0.90;68.60;98938.82;1813539;76;21569;-60
2021/04/03 03:34:10;;;;;;;8.45;4.70;;;;;;;0.93;68.52;98941.83;1782785;77;21856;-60
2021/04/03 03:36:40;;;;;;;5.15;3.70;;;;;;;0.94;68.39;98934.46;1791094;77;21578;-60
2021/04/03 03:39:09;;;;;;;6.17;4.50;;;;;;;0.95;68.15;98937.03;1808975;76;21212;-59
2021/04/03 03:41:38;;;;;;;6.50;4.65;;;;;;;0.98;68.19;98933.56;1798578;77;22458;-63
2021/04/03 03:44:07;;;;;;;8.73;4.97;;;;;;;1.02;68.16;98938.22;1785240;76;21575;-59
2021/04/03 03:46:36;;;;;;;7.22;5.15;;;;;;;1.02;68.21;98936.52;1816093;76;22106;-59
2021/04/03 03:49:04;;;;;;;9.30;4.45;;;;;;;1.00;68.39;98936.98;1808910;76;21488;-60
2021/04/03 03:51:33;;;;;;;8.10;5.55;;;;;;;1.04;68.30;98936.05;1814238;77;21476;-60
2021/04/03 03:54:03;;;;;;;9.23;4.92;;;;;;;1.06;68.35;98934.73;1810440;76;21491;-60
2021/04/03 03:56:32;;;;;;;10.40;4.78;;;;;;;1.08;68.48;98936.41;1817870;76;21181;-60
2021/04/03 03:59:00;;;;;;;8.75;5.28;;;;;;;1.09;68.54;98935.55;1786161;77;22099;-60
2021/04/03 04:01:28;;;;;;;5.72;4.40;;;;;;;1.15;68.64;98947.54;1806228;76;22059;-60
2021/04/03 04:03:57;;;;;;;9.03;4.87;;;;;;;1.21;68.36;98940.11;1749067;80;21200;-61
2021/04/03 04:06:25;;;;;;;7.78;5.17;;;;;;;1.21;68.45;98942.70;1772522;78;21570;-60
2021/04/03 04:08:54;;;;;;;8.93;5.65;;;;;;;1.21;68.46;98941.41;1768050;78;21101;-60
2021/04/03 04:11:23;;;;;;;11.30;5.25;;;;;;;1.25;68.23;98946.95;1763298;78;22007;-60
2021/04/03 04:14:01;;;;;;;7.55;4.95;;;;;;;1.32;68.37;98944.68;1807281;76;23277;-58
2021/04/03 04:16:31;;;;;;;7.95;4.95;;;;;;;1.33;68.45;98944.63;1778853;77;21647;-58
2021/04/03 04:18:59;;;;;;;7.20;5.22;;;;;;;1.39;68.37;98950.59;1781309;79;21824;-58
2021/04/03 04:21:27;;;;;;;6.17;4.37;;;;;;;1.43;68.34;98952.25;1786537;77;21586;-59
2021/04/03 04:23:55;;;;;;;6.33;4.72;;;;;;;1.47;68.26;98959.96;1782889;77;21678;-59
2021/04/03 04:26:24;;;;;;;6.78;4.58;;;;;;;1.49;68.32;98955.61;1777745;77;21637;-59
2021/04/03 04:28:53;;;;;;;7.35;4.90;;;;;;;1.55;68.26;98956.78;1778647;77;21614;-59
2021/04/03 04:31:22;;;;;;;5.97;4.30;;;;;;;1.57;68.23;98957.22;1781382;77;22114;-59
2021/04/03 04:33:52;;;;;;;9.15;5.33;;;;;;;1.58;68.31;98953.27;1774682;79;21256;-60
2021/04/03 04:36:21;;;;;;;7.72;5.22;;;;;;;1.65;68.29;98951.45;1775974;79;21667;-59
2021/04/03 04:38:48;;;;;;;10.08;5.78;;;;;;;1.72;68.22;98952.60;1787473;78;21591;-60
2021/04/03 04:41:19;;;;;;;8.30;5.72;;;;;;;1.77;68.19;98956.39;1785616;77;21596;-60
2021/04/03 04:43:49;;;;;;;8.00;5.67;;;;;;;1.79;68.08;98955.08;1786024;77;21608;-59
2021/04/03 04:46:18;;;;;;;8.68;5.85;;;;;;;1.78;68.07;98954.23;1783858;77;21626;-60
2021/04/03 04:48:47;;;;;;;12.03;6.95;;;;;;;1.80;67.92;98956.80;1785714;77;21574;-62
2021/04/03 04:51:18;;;;;;;7.83;6.10;;;;;;;1.78;67.84;98959.41;1786058;77;21634;-62
2021/04/03 04:53:47;;;;;;;11.18;7.33;;;;;;;1.71;67.87;98956.09;1781168;77;21662;-62
2021/04/03 04:56:16;;;;;;;11.97;7.15;;;;;;;1.67;68.06;98954.86;1793466;77;22089;-62
2021/04/03 04:58:45;;;;;;;12.65;7.28;;;;;;;1.66;68.22;98953.17;1780268;77;21142;-61
2021/04/03 05:01:14;;;;;;;11.75;7.08;;;;;;;1.70;68.34;98962.14;1784563;77;21667;-60
2021/04/03 05:03:43;;;;;;;12.25;6.95;;;;;;;1.73;67.96;98962.11;1784698;77;21603;-60
2021/04/03 05:06:11;;;;;;;8.63;6.50;;;;;;;1.78;68.21;98967.19;1789021;77;21609;-60
2021/04/03 05:08:39;;;;;;;8.45;6.55;;;;;;;1.85;68.16;98969.24;1777344;79;22079;-60
2021/04/03 05:11:06;;;;;;;8.18;6.22;;;;;;;1.89;67.79;98963.12;1776035;77;21564;-59
2021/04/03 05:13:34;;;;;;;13.90;7.05;;;;;;;1.86;67.71;98962.70;1788355;77;21126;-59
2021/04/03 05:16:03;;;;;;;9.40;6.72;;;;;;;1.89;67.78;98963.12;1797916;77;21559;-60
2021/04/03 05:20:15;;;;;;;10.68;6.60;;;;;;;1.99;67.82;98964.64;1792712;78;23244;-60
2021/04/03 05:22:42;;;;;;;;;;;;;;;2.00;67.74;98964.19;1758814;78;21237;-60
2021/04/03 05:25:14;;;;;;;8.80;6.12;;;;;;;2.04;67.53;98963.27;1755869;78;22153;-60
2021/04/03 05:27:42;;;;;;;8.73;6.20;;;;;;;2.06;67.52;98955.02;1747685;79;21607;-61
2021/04/03 05:30:12;;;;;;;8.05;5.85;;;;;;;2.10;67.22;98960.55;1747805;80;21671;-61
2021/04/03 05:32:40;;;;;;;7.03;5.05;;;;;;;2.19;67.25;98950.45;1764818;78;21591;-61
2021/04/03 05:35:09;;;;;;;8.88;5.95;;;;;;;2.29;67.01;98942.89;1751456;78;21646;-61
2021/04/03 05:37:38;;;;;;;11.12;6.15;;;;;;;2.40;66.85;98949.16;1748422;80;21548;-61
2021/04/03 05:40:06;;;;;;;;;;;;;;;2.48;66.41;98948.09;1756010;78;21562;-61
2021/04/03 05:42:34;;;;;;;8.88;5.75;;;;;;;2.55;66.52;98949.28;1751105;78;20584;-61
2021/04/03 05:45:04;;;;;;;13.08;6.97;;;;;;;2.60;66.17;98956.50;1752943;79;21539;-61
2021/04/03 05:47:35;;;;;;;10.30;5.80;;;;;;;2.63;66.24;98952.11;1754206;79;21626;-60
2021/04/03 05:50:07;;;;;;;10.75;6.12;;;;;;;2.69;66.39;98957.61;1754094;79;22058;-61
2021/04/03 05:52:35;;;;;;;9.18;5.53;;;;;;;2.71;65.86;98962.31;1742126;80;21607;-63
2021/04/03 05:55:05;;;;;;;12.07;6.92;;;;;;;2.74;65.75;98966.16;1751536;78;21617;-63
2021/04/03 05:57:34;;;;;;;16.70;8.65;;;;;;;2.79;65.68;98963.45;1758270;78;21659;-62
2021/04/03 06:00:05;;;;;;;11.55;5.92;;;;;;;2.92;65.74;98977.45;1759291;78;21690;-61
2021/04/03 06:02:37;;;;;;;9.55;6.53;;;;;;;3.04;65.60;98970.27;1755402;78;22093;-60
2021/04/03 06:05:06;;;;;;;12.53;6.80;;;;;;;3.14;65.53;98973.50;1757071;78;22533;-61
2021/04/03 06:07:35;;;;;;;15.93;7.30;;;;;;;3.25;65.18;98974.09;1755654;78;21727;-61
2021/04/03 06:10:06;;;;;;;8.00;6.00;;;;;;;3.35;64.80;98985.13;1761108;78;21954;-61
2021/04/03 06:12:46;;;;;;;9.80;6.25;;;;;;;3.45;64.30;98978.38;1757102;78;21622;-61
2021/04/03 06:15:21;;;;;;;13.35;7.60;;;;;;;3.54;64.22;98981.63;1748345;80;21675;-63
2021/04/03 06:17:54;;;;;;;9.05;6.58;;;;;;;3.59;64.24;98971.98;1714891;80;21182;-60
2021/04/03 06:20:39;;;;;;;13.90;7.97;;;;;;;3.65;64.68;98975.26;1708027;80;21529;-63
2021/04/03 06:23:10;;;;;;;11.43;6.78;;;;;;;3.77;64.86;98977.14;1733597;80;21707;-62
2021/04/03 06:25:56;;;;;;;11.83;7.50;;;;;;;3.96;64.89;98984.05;1735674;80;21199;-62
2021/04/03 06:28:28;;;;;;;19.65;9.45;;;;;;;4.03;64.94;98981.66;1737116;80;22066;-54
2021/04/03 06:31:02;;;;;;;15.88;8.28;;;;;;;4.13;64.93;98984.44;1741383;80;21541;-54
2021/04/03 06:33:31;;;;;;;10.10;7.00;;;;;;;4.25;64.80;98991.89;1739320;80;21596;-58
2021/04/03 06:36:13;;;;;;;9.63;5.95;;;;;;;4.38;64.08;98992.87;1732315;79;21572;-63
2021/04/03 06:38:43;;;;;;;9.68;6.45;;;;;;;4.52;63.71;98991.17;1719217;80;22046;-59
2021/04/03 06:41:25;;;;;;;10.32;6.12;;;;;;;4.59;63.32;98997.45;1736943;80;22129;-57
2021/04/03 06:44:03;;;;;;;7.80;5.12;;;;;;;4.69;63.33;99003.27;1731287;80;21683;-58
2021/04/03 06:46:34;;;;;;;5.72;4.42;;;;;;;4.78;63.49;99006.89;1736431;80;21620;-56
2021/04/03 06:49:02;;;;;;;6.58;4.97;;;;;;;4.90;62.79;99009.60;1728270;80;21866;-55
2021/04/03 06:51:31;;;;;;;7.60;4.83;;;;;;;5.02;62.62;99009.22;1733653;79;21156;-55
2021/04/03 06:54:01;;;;;;;6.10;3.83;;;;;;;5.18;62.04;99006.13;1732062;80;21644;-52
2021/04/03 06:56:31;;;;;;;6.55;3.98;;;;;;;5.33;61.30;99013.93;1735833;80;21592;-55
2021/04/03 06:59:09;;;;;;;4.85;3.45;;;;;;;5.46;60.18;99017.42;1730246;80;21624;-54
2021/04/03 07:01:50;;;;;;;6.30;3.85;;;;;;;5.59;60.22;99026.14;1737245;80;21644;-54
2021/04/03 07:04:30;;;;;;;6.33;4.20;;;;;;;5.59;59.98;98998.75;1735843;80;22028;-62
2021/04/03 07:06:58;;;;;;;6.67;4.40;;;;;;;5.86;59.53;99023.09;1730914;80;22091;-55
2021/04/03 07:09:26;;;;;;;5.08;4.55;;;;;;;6.01;59.44;99028.28;1730480;80;21615;-57
2021/04/03 07:11:55;;;;;;;8.58;4.78;;;;;;;6.12;58.43;99035.30;1726354;80;21604;-55
2021/04/03 07:14:25;;;;;;;6.35;4.22;;;;;;;6.17;57.93;99034.66;1726627;82;22003;-65
2021/04/03 07:16:53;;;;;;;6.70;5.00;;;;;;;6.29;58.80;99034.71;1735911;80;21596;-56
2021/04/03 07:19:21;;;;;;;5.20;4.33;;;;;;;6.41;58.53;99036.88;1736638;80;22031;-57
2021/04/03 07:21:50;;;;;;;7.50;4.45;;;;;;;6.53;57.67;99040.80;1739795;79;21079;-59
2021/04/03 07:24:18;;;;;;;9.50;5.55;;;;;;;6.67;57.40;99040.75;1747384;79;21703;-56
2021/04/03 07:26:49;;;;;;;5.10;4.47;;;;;;;6.78;57.16;99041.20;1750410;79;21228;-57
2021/04/03 07:29:46;;;;;;;5.30;4.12;;;;;;;6.86;56.27;99045.72;1738041;79;21222;-56
2021/04/03 07:32:44;;;;;;;6.10;4.53;;;;;;;6.95;56.02;99053.65;1738837;79;22076;-55
2021/04/03 07:35:24;;;;;;;7.05;4.62;;;;;;;7.06;55.70;99044.11;1744352;79;21643;-53
2021/04/03 07:37:53;;;;;;;4.75;4.17;;;;;;;7.13;53.83;99057.34;1743425;79;21548;-53
2021/04/03 07:40:30;;;;;;;8.33;4.45;;;;;;;7.14;53.82;99053.38;1744544;79;21615;-53
2021/04/03 07:42:58;;;;;;;8.70;4.75;;;;;;;7.19;54.66;99054.02;1692208;83;21622;-53
2021/04/03 07:45:44;;;;;;;6.62;4.28;;;;;;;7.24;54.34;99058.25;1743883;80;21998;-53
2021/04/03 07:48:15;;;;;;;6.17;4.60;;;;;;;7.26;54.55;99056.42;1741432;80;21135;-53
2021/04/03 07:50:50;;;;;;;7.12;4.15;;;;;;;7.35;54.51;99056.92;1736388;80;21658;-52
2021/04/03 07:53:36;;;;;;;7.70;4.50;;;;;;;7.53;54.27;99065.79;1737116;80;21667;-53
2021/04/03 07:56:04;;;;;;;6.53;3.90;;;;;;;7.67;53.70;99059.19;1737129;80;21484;-53
2021/04/03 07:58:34;;;;;;;6.25;4.15;;;;;;;7.84;53.46;99063.73;1741897;80;21965;-52
2021/04/03 08:01:06;;;;;;;6.08;3.87;;;;;;;7.95;52.56;99072.00;1746564;80;21549;-53
2021/04/03 08:03:35;;;;;;;7.72;4.25;;;;;;;8.06;52.15;99069.80;1741768;79;21124;-53
2021/04/03 08:06:08;;;;;;;6.10;4.55;;;;;;;8.18;53.07;99071.04;1756233;80;21540;-52
2021/04/03 08:08:41;;;;;;;8.90;4.75;;;;;;;8.33;52.71;99083.48;1691963;83;21655;-52
2021/04/03 08:11:15;;;;;;;10.35;5.58;;;;;;;8.43;52.22;99085.27;1739985;80;22114;-53
2021/04/03 08:13:46;;;;;;;7.00;4.58;;;;;;;8.53;51.91;99085.72;1732006;80;21625;-53
2021/04/03 08:16:15;;;;;;;7.37;4.67;;;;;;;8.64;50.98;99082.64;1744680;80;21618;-54
2021/04/03 08:18:48;;;;;;;4.97;3.85;;;;;;;8.76;51.07;99072.95;1734792;80;21568;-65
2021/04/03 08:21:17;;;;;;;6.20;3.47;;;;;;;8.88;49.68;99073.69;1742261;80;21660;-59
2021/04/03 08:23:51;;;;;;;6.05;4.12;;;;;;;8.91;48.62;99061.77;1747189;79;22058;-56
2021/04/03 08:26:21;;;;;;;4.53;3.60;;;;;;;8.90;48.54;99057.90;1694598;83;21923;-54
2021/04/03 08:28:50;;;;;;;6.80;2.90;;;;;;;8.83;48.06;99062.55;1736394;80;21676;-61
2021/04/03 08:31:25;;;;;;;;;;;;;;;8.72;47.17;99064.36;1750688;80;21207;-55
2021/04/03 08:33:59;;;;;;;5.85;3.20;;;;;;;8.70;46.79;99071.88;1725027;80;20474;-56
2021/04/03 08:36:29;;;;;;;3.83;2.70;;;;;;;8.69;46.64;99069.73;1690846;82;22159;-55
2021/04/03 08:39:05;;;;;;;4.70;3.02;;;;;;;8.64;45.66;99071.70;1736439;80;21233;-56
2021/04/03 08:41:54;;;;;;;4.92;3.17;;;;;;;8.73;45.44;99070.45;1687908;82;21188;-55
2021/04/03 08:44:28;;;;;;;5.45;2.87;;;;;;;8.83;46.19;99063.02;1699738;82;21590;-56
2021/04/03 08:47:02;;;;;;;3.47;2.98;;;;;;;9.00;45.64;99056.55;1748254;80;21625;-56
2021/04/03 08:49:37;;;;;;;4.83;3.00;;;;;;;9.13;44.30;99048.50;1744607;80;21644;-56
2021/04/03 08:52:07;;;;;;;5.70;3.17;;;;;;;9.22;45.59;99055.57;1732443;80;21558;-56
2021/04/03 08:54:39;;;;;;;4.10;3.40;;;;;;;9.39;45.34;99060.03;1737481;80;21668;-56
2021/04/03 08:57:27;;;;;;;4.22;3.10;;;;;;;9.51;44.52;99052.87;1736818;80;21703;-56
2021/04/03 09:00:00;;;;;;;4.87;2.80;;;;;;;9.58;43.73;99052.97;1742106;80;21691;-56
2021/04/03 09:02:29;;;;;;;3.35;2.10;;;;;;;9.71;43.80;99053.23;1747323;80;22056;-56
2021/04/03 09:04:57;;;;;;;;;;;;;;;9.85;42.62;99063.05;1734912;80;21596;-58
2021/04/03 09:07:35;;;;;;;2.67;1.98;;;;;;;9.82;41.11;99057.97;1728199;80;20577;-56
2021/04/03 09:10:18;;;;;;;3.45;1.52;;;;;;;9.85;41.89;99057.80;1704297;81;21537;-56
2021/04/03 09:12:47;;;;;;;1.12;1.05;;;;;;;9.94;41.47;99058.66;1710021;82;21164;-57
2021/04/03 09:15:22;;;;;;;2.10;1.25;;;;;;;10.07;41.14;99057.13;1679074;83;22084;-56
2021/04/03 09:17:54;;;;;;;1.60;1.25;;;;;;;10.22;40.86;99057.29;1667447;84;21532;-56
2021/04/03 09:20:28;;;;;;;2.27;1.60;;;;;;;10.31;39.73;99056.38;1685331;83;21633;-56
2021/04/03 09:23:05;;;;;;;3.05;1.65;;;;;;;10.36;39.79;99060.55;1736207;80;21672;-58
2021/04/03 09:25:33;;;;;;;3.25;2.20;;;;;;;10.39;40.10;99069.13;1742233;80;21537;-56
2021/04/03 09:28:10;;;;;;;1.77;1.67;;;;;;;10.48;39.95;99066.03;1745490;80;22070;-56
2021/04/03 09:30:40;;;;;;;3.58;1.98;;;;;;;10.55;39.01;99058.69;1735105;80;21648;-56
2021/04/03 09:33:21;;;;;;;2.50;1.98;;;;;;;10.56;39.81;99053.80;1739018;80;21572;-56
2021/04/03 09:35:54;;;;;;;1.75;1.62;;;;;;;10.66;39.27;99052.41;1743309;79;21230;-56
2021/04/03 09:38:37;;;;;;;3.08;2.20;;;;;;;10.65;38.79;99048.06;1743902;80;21663;-55
2021/04/03 09:41:27;;;;;;;3.05;1.87;;;;;;;10.63;39.73;99045.98;1741704;80;22072;-59
2021/04/03 09:43:55;;;;;;;2.85;2.30;;;;;;;10.73;39.64;99054.23;1741095;80;21603;-56
2021/04/03 09:46:23;;;;;;;3.58;1.98;;;;;;;10.76;39.03;99055.87;1740939;80;21577;-56
2021/04/03 09:48:51;;;;;;;11.05;5.72;;;;;;;10.73;39.46;99048.97;1742398;80;21667;-56
2021/04/03 09:51:20;;;;;;;7.30;2.98;;;;;;;10.74;38.98;99049.81;1702170;81;21640;-56
2021/04/03 09:53:50;;;;;;;4.22;2.80;;;;;;;10.63;38.51;99045.14;1739610;80;22116;-56
2021/04/03 09:56:20;;;;;;;4.47;2.17;;;;;;;10.58;38.32;99045.37;1733678;80;21671;-57
2021/04/03 09:58:48;;;;;;;5.50;2.65;;;;;;;10.62;37.69;99044.27;1745081;79;21595;-56
2021/04/03 10:01:16;;;;;;;3.92;2.95;;;;;;;10.63;37.18;99043.36;1741348;80;21206;-57
2021/04/03 10:03:46;;;;;;;3.60;1.55;;;;;;;10.67;36.70;99045.36;1741628;80;21639;-57
2021/04/03 10:06:13;;;;;;;;;;;;;;;10.74;37.38;99049.81;1745521;80;21986;-54
2021/04/03 10:08:41;;;;;;;4.25;2.98;;;;;;;10.76;36.74;99051.45;1748295;79;27614;-58
2021/04/03 10:11:09;;;;;;;13.43;7.45;;;;;;;10.88;36.41;99051.26;1747708;79;21562;-58
2021/04/03 10:13:39;;;;;;;7.28;3.87;;;;;;;11.00;35.86;99062.89;1749110;80;21660;-55
2021/04/03 10:16:06;;;;;;;;;;;;;;;11.13;35.51;99056.03;1741902;80;21545;-58
2021/04/03 10:18:35;;;;;;;3.30;2.00;;;;;;;11.17;33.67;99064.17;1739596;79;22038;-56
2021/04/03 10:21:04;;;;;;;1.75;1.50;;;;;;;11.23;34.56;99066.94;1745988;79;21605;-58
2021/04/03 10:23:31;;;;;;;1.55;1.37;;;;;;;11.23;34.60;99054.62;1747990;79;21242;-57
2021/04/03 10:25:59;;;;;;;10.18;5.53;;;;;;;11.22;35.20;99045.01;1701823;81;21557;-59
2021/04/03 10:28:29;;;;;;;3.65;2.70;;;;;;;11.22;35.20;99045.01;1753705;80;21230;-57
2021/04/03 10:30:58;;;;;;;2.22;1.32;;;;;;;11.29;35.45;99046.38;1753041;79;22057;-58
2021/04/03 10:33:25;;;;;;;;;;;;;;;11.39;34.64;99045.39;1743848;80;21557;-57
2021/04/03 10:35:53;;;;;;;5.75;2.70;;;;;;;11.38;32.99;99041.55;1732845;80;20357;-59
2021/04/03 10:38:21;;;;;;;6.53;2.75;;;;;;;11.31;34.97;99043.66;1734034;80;21687;-61
2021/04/03 10:40:49;;;;;;;2.60;2.00;;;;;;;11.39;35.11;99043.23;1738731;80;21583;-59
2021/04/03 10:43:16;;;;;;;3.83;2.27;;;;;;;11.40;34.19;99049.73;1738382;79;22490;-60
2021/04/03 10:45:44;;;;;;;;;;;;;;;11.38;33.28;99046.34;1737992;80;21656;-63
2021/04/03 10:48:12;;;;;;;2.65;1.55;;;;;;;11.37;33.30;99047.73;1744398;80;20474;-58
2021/04/03 10:50:41;;;;;;;3.70;2.60;;;;;;;11.40;34.63;99040.52;1733851;79;21505;-60
2021/04/03 10:53:09;;;;;;;2.72;1.70;;;;;;;11.50;34.15;99037.75;1691046;82;21754;-62
2021/04/03 10:55:39;;;;;;;2.50;1.37;;;;;;;11.55;34.00;99040.14;1704035;81;21697;-63
2021/04/03 10:58:09;;;;;;;2.70;1.57;;;;;;;11.59;34.12;99032.91;1738181;80;21687;-57
2021/04/03 11:00:38;;;;;;;6.70;3.15;;;;;;;11.58;33.93;99030.73;1740945;79;21604;-58
2021/04/03 11:03:06;;;;;;;4.45;2.47;;;;;;;11.66;34.04;99026.37;1745430;79;21692;-56
2021/04/03 11:05:34;;;;;;;;;;;;;;;11.81;33.07;99035.15;1740449;80;21159;-59
2021/04/03 11:08:03;;;;;;;2.45;1.55;;;;;;;11.85;32.99;99041.96;1734369;80;22062;-56
2021/04/03 11:10:31;;;;;;;4.00;1.70;;;;;;;11.78;32.60;99041.93;1737497;80;21675;-57
2021/04/03 11:12:59;;;;;;;;;;;;;;;11.56;32.81;99037.03;1740015;80;21667;-57
2021/04/03 11:15:26;;;;;;;4.37;2.10;;;;;;;11.42;32.22;99034.70;1738066;80;20504;-56
2021/04/03 11:17:56;;;;;;;2.10;1.37;;;;;;;11.29;33.47;99034.53;1740847;80;21675;-56
2021/04/03 11:20:24;;;;;;;4.17;2.08;;;;;;;11.41;32.42;99032.16;1743368;80;21635;-57
2021/04/03 11:22:54;;;;;;;4.53;2.05;;;;;;;11.52;32.92;99028.45;1734756;80;21640;-56
2021/04/03 11:25:21;;;;;;;2.52;1.60;;;;;;;11.66;33.30;99033.80;1754598;80;21656;-56
2021/04/03 11:27:50;;;;;;;1.80;1.40;;;;;;;11.78;32.38;99019.06;1736885;80;21581;-56
2021/04/03 11:30:19;;;;;;;4.17;1.82;;;;;;;11.88;32.23;99029.91;1751888;80;21643;-56
2021/04/03 11:32:49;;;;;;;1.92;1.32;;;;;;;12.04;32.64;99029.44;1746914;80;22059;-56
2021/04/03 11:35:20;;;;;;;2.08;1.40;;;;;;;12.19;31.42;99024.22;1743922;80;21189;-56
2021/04/03 11:37:49;;;;;;;4.70;3.00;;;;;;;12.12;31.04;99028.98;1746020;80;21659;-56
2021/04/03 11:40:18;;;;;;;2.83;1.60;;;;;;;12.06;30.85;99018.81;1742878;80;21218;-56
2021/04/03 11:42:48;;;;;;;2.77;2.27;;;;;;;12.11;31.02;99011.50;1741390;80;21560;-56
2021/04/03 11:45:17;;;;;;;6.25;2.55;;;;;;;12.18;30.97;99025.14;1745064;80;22042;-57
2021/04/03 11:47:46;;;;;;;3.65;3.00;;;;;;;12.19;30.24;99021.10;1743638;80;21167;-57
2021/04/03 11:50:15;;;;;;;2.50;2.10;;;;;;;12.21;29.88;99021.02;1687554;82;21682;-54
2021/04/03 11:52:42;;;;;;;2.55;1.37;;;;;;;12.22;30.37;99014.34;1688038;83;21575;-55
2021/04/03 11:55:12;;;;;;;7.30;3.65;;;;;;;12.23;30.37;99021.30;1703903;82;21729;-54
2021/04/03 11:57:39;;;;;;;3.40;2.35;;;;;;;12.26;30.38;99023.76;1744579;80;22059;-54
2021/04/03 12:00:08;;;;;;;3.77;2.10;;;;;;;12.25;29.38;99021.20;1734257;80;21601;-54
2021/04/03 12:02:39;;;;;;;3.33;2.15;;;;;;;12.26;30.34;99017.17;1740099;79;21545;-54
2021/04/03 12:05:07;;;;;;;2.12;1.82;;;;;;;12.31;29.94;99019.52;1738115;80;21586;-55